sensor_id;sensor_type;location;lat;lon;timestamp;temperature;humidity
6421;DHT22;3243;50.958;7.012;2023-09-18T00:00:07;20.20;99.90
6421;DHT22;3243;50.958;7.012;2023-09-18T00:02:39;20.20;99.90
6421;DHT22;3243;50.958;7.012;2023-09-18T00:05:06;20.10;99.90
6421;DHT22;3243;50.958;7.012;2023-09-18T00:07:33;20.10;1.00
6421;DHT22;3243;50.958;7.012;2023-09-18T00:10:00;20.10;99.90
6421;DHT22;3243;50.958;7.012;2023-09-18T00:12:26;20.10;1.00
6421;DHT22;3243;50.958;7.012;2023-09-18T00:14:53;20.10;99.90
6421;DHT22;3243;50.958;7.012;2023-09-18T00:17:20;20.10;99.90
6421;DHT22;3243;50.958;7.012;2023-09-18T00:19:47;20.10;99.90
6421;DHT22;3243;50.958;7.012;2023-09-18T00:22:14;20.10;99.90
6421;DHT22;3243;50.958;7.012;2023-09-18T00:24:41;20.10;99.90
6421;DHT22;3243;50.958;7.012;2023-09-18T00:27:08;20.10;99.90
6421;DHT22;3243;50.958;7.012;2023-09-18T00:29:34;20.10;99.90
6421;DHT22;3243;50.958;7.012;2023-09-18T00:32:01;20.10;99.90
6421;DHT22;3243;50.958;7.012;2023-09-18T00:34:29;20.10;99.90
6421;DHT22;3243;50.958;7.012;2023-09-18T00:36:58;20.10;99.90
6421;DHT22;3243;50.958;7.012;2023-09-18T00:39:26;20.00;99.90
6421;DHT22;3243;50.958;7.012;2023-09-18T00:41:53;20.10;99.90
6421;DHT22;3243;50.958;7.012;2023-09-18T00:44:25;20.10;99.90
6421;DHT22;3243;50.958;7.012;2023-09-18T00:46:53;20.00;99.90
6421;DHT22;3243;50.958;7.012;2023-09-18T00:49:23;19.90;99.90
6421;DHT22;3243;50.958;7.012;2023-09-18T00:51:51;20.00;99.90
6421;DHT22;3243;50.958;7.012;2023-09-18T00:54:18;19.90;99.90
6421;DHT22;3243;50.958;7.012;2023-09-18T00:56:46;19.90;99.90
6421;DHT22;3243;50.958;7.012;2023-09-18T00:59:14;19.90;99.90
6421;DHT22;3243;50.958;7.012;2023-09-18T01:01:42;19.90;99.90
6421;DHT22;3243;50.958;7.012;2023-09-18T01:04:09;19.80;99.90
6421;DHT22;3243;50.958;7.012;2023-09-18T01:06:37;19.90;99.90
6421;DHT22;3243;50.958;7.012;2023-09-18T01:09:04;20.00;99.90
6421;DHT22;3243;50.958;7.012;2023-09-18T01:14:44;20.00;99.90
6421;DHT22;3243;50.958;7.012;2023-09-18T01:17:14;20.00;99.90
6421;DHT22;3243;50.958;7.012;2023-09-18T01:19:46;20.00;99.90
6421;DHT22;3243;50.958;7.012;2023-09-18T01:22:15;20.00;1.00
6421;DHT22;3243;50.958;7.012;2023-09-18T01:24:44;20.00;30.00
6421;DHT22;3243;50.958;7.012;2023-09-18T01:27:12;20.00;64.90
6421;DHT22;3243;50.958;7.012;2023-09-18T01:29:40;20.00;1.00
6421;DHT22;3243;50.958;7.012;2023-09-18T01:32:06;19.90;1.00
6421;DHT22;3243;50.958;7.012;2023-09-18T01:34:53;19.90;8.30
6421;DHT22;3243;50.958;7.012;2023-09-18T01:37:26;19.80;1.00
6421;DHT22;3243;50.958;7.012;2023-09-18T01:39:54;19.80;60.10
6421;DHT22;3243;50.958;7.012;2023-09-18T01:42:25;19.80;99.90
6421;DHT22;3243;50.958;7.012;2023-09-18T01:44:54;19.80;99.90
6421;DHT22;3243;50.958;7.012;2023-09-18T01:47:22;19.80;99.90
6421;DHT22;3243;50.958;7.012;2023-09-18T01:49:53;19.80;99.90
6421;DHT22;3243;50.958;7.012;2023-09-18T01:52:20;19.60;99.90
6421;DHT22;3243;50.958;7.012;2023-09-18T01:54:47;19.80;99.90
6421;DHT22;3243;50.958;7.012;2023-09-18T01:57:15;19.80;99.90
6421;DHT22;3243;50.958;7.012;2023-09-18T02:02:10;19.80;99.90
6421;DHT22;3243;50.958;7.012;2023-09-18T02:04:50;19.80;99.90
6421;DHT22;3243;50.958;7.012;2023-09-18T02:07:33;19.80;99.90
6421;DHT22;3243;50.958;7.012;2023-09-18T02:10:00;19.80;99.90
6421;DHT22;3243;50.958;7.012;2023-09-18T02:12:27;19.90;99.90
6421;DHT22;3243;50.958;7.012;2023-09-18T02:14:54;19.90;1.00
6421;DHT22;3243;50.958;7.012;2023-09-18T02:17:24;20.00;1.00
6421;DHT22;3243;50.958;7.012;2023-09-18T02:19:51;20.00;1.00
6421;DHT22;3243;50.958;7.012;2023-09-18T02:22:18;20.20;1.00
6421;DHT22;3243;50.958;7.012;2023-09-18T02:24:44;20.30;1.00
6421;DHT22;3243;50.958;7.012;2023-09-18T02:27:11;20.30;99.90
6421;DHT22;3243;50.958;7.012;2023-09-18T02:29:38;20.40;99.90
6421;DHT22;3243;50.958;7.012;2023-09-18T02:32:05;20.40;99.90
6421;DHT22;3243;50.958;7.012;2023-09-18T02:34:32;20.40;99.90
6421;DHT22;3243;50.958;7.012;2023-09-18T02:37:00;20.40;99.90
6421;DHT22;3243;50.958;7.012;2023-09-18T02:39:27;20.30;99.90
6421;DHT22;3243;50.958;7.012;2023-09-18T02:41:53;20.40;1.00
6421;DHT22;3243;50.958;7.012;2023-09-18T02:44:20;20.40;1.00
6421;DHT22;3243;50.958;7.012;2023-09-18T02:46:47;20.30;71.30
6421;DHT22;3243;50.958;7.012;2023-09-18T02:49:14;20.30;99.90
6421;DHT22;3243;50.958;7.012;2023-09-18T02:51:41;20.30;99.90
6421;DHT22;3243;50.958;7.012;2023-09-18T02:54:07;20.20;1.00
6421;DHT22;3243;50.958;7.012;2023-09-18T02:56:34;20.10;1.00
6421;DHT22;3243;50.958;7.012;2023-09-18T03:01:28;20.10;99.90
6421;DHT22;3243;50.958;7.012;2023-09-18T03:03:55;20.10;99.90
6421;DHT22;3243;50.958;7.012;2023-09-18T03:06:22;20.10;1.00
6421;DHT22;3243;50.958;7.012;2023-09-18T03:08:49;20.00;99.90
6421;DHT22;3243;50.958;7.012;2023-09-18T03:11:17;19.90;1.00
6421;DHT22;3243;50.958;7.012;2023-09-18T03:13:44;19.80;1.00
6421;DHT22;3243;50.958;7.012;2023-09-18T03:16:14;19.90;99.90
6421;DHT22;3243;50.958;7.012;2023-09-18T03:18:41;19.90;1.00
6421;DHT22;3243;50.958;7.012;2023-09-18T03:21:08;20.00;1.00
6421;DHT22;3243;50.958;7.012;2023-09-18T03:23:34;19.90;99.90
6421;DHT22;3243;50.958;7.012;2023-09-18T03:26:02;19.90;99.90
6421;DHT22;3243;50.958;7.012;2023-09-18T03:28:29;19.90;99.90
6421;DHT22;3243;50.958;7.012;2023-09-18T03:30:57;19.90;99.90
6421;DHT22;3243;50.958;7.012;2023-09-18T03:33:24;19.80;99.90
6421;DHT22;3243;50.958;7.012;2023-09-18T03:35:52;19.90;99.90
6421;DHT22;3243;50.958;7.012;2023-09-18T03:38:21;19.90;99.90
6421;DHT22;3243;50.958;7.012;2023-09-18T03:40:48;19.80;99.90
6421;DHT22;3243;50.958;7.012;2023-09-18T03:43:15;19.80;99.90
6421;DHT22;3243;50.958;7.012;2023-09-18T03:45:42;19.80;99.90
6421;DHT22;3243;50.958;7.012;2023-09-18T03:48:10;19.80;99.90
6421;DHT22;3243;50.958;7.012;2023-09-18T03:50:37;19.80;99.90
6421;DHT22;3243;50.958;7.012;2023-09-18T03:53:06;19.80;99.90
6421;DHT22;3243;50.958;7.012;2023-09-18T03:55:33;19.90;99.90
6421;DHT22;3243;50.958;7.012;2023-09-18T03:58:00;19.90;99.90
6421;DHT22;3243;50.958;7.012;2023-09-18T04:00:27;19.90;99.90
6421;DHT22;3243;50.958;7.012;2023-09-18T04:02:53;19.90;99.90
6421;DHT22;3243;50.958;7.012;2023-09-18T04:05:21;19.90;99.90
6421;DHT22;3243;50.958;7.012;2023-09-18T04:07:48;19.80;99.90
6421;DHT22;3243;50.958;7.012;2023-09-18T04:10:15;19.80;99.90
6421;DHT22;3243;50.958;7.012;2023-09-18T04:12:46;19.80;99.90
6421;DHT22;3243;50.958;7.012;2023-09-18T04:15:14;19.80;99.90
6421;DHT22;3243;50.958;7.012;2023-09-18T04:17:41;19.80;99.90
6421;DHT22;3243;50.958;7.012;2023-09-18T04:20:09;19.80;99.90
6421;DHT22;3243;50.958;7.012;2023-09-18T04:22:36;19.80;99.90
6421;DHT22;3243;50.958;7.012;2023-09-18T04:25:03;19.70;99.90
6421;DHT22;3243;50.958;7.012;2023-09-18T04:27:32;19.70;99.90
6421;DHT22;3243;50.958;7.012;2023-09-18T04:29:58;19.70;99.90
6421;DHT22;3243;50.958;7.012;2023-09-18T04:32:27;19.70;99.90
6421;DHT22;3243;50.958;7.012;2023-09-18T04:34:56;19.70;99.90
6421;DHT22;3243;50.958;7.012;2023-09-18T04:37:22;19.60;99.90
6421;DHT22;3243;50.958;7.012;2023-09-18T04:39:49;19.70;99.90
6421;DHT22;3243;50.958;7.012;2023-09-18T04:42:16;19.50;99.90
6421;DHT22;3243;50.958;7.012;2023-09-18T04:44:43;19.50;99.90
6421;DHT22;3243;50.958;7.012;2023-09-18T04:47:10;19.50;99.90
6421;DHT22;3243;50.958;7.012;2023-09-18T04:49:36;19.50;99.90
6421;DHT22;3243;50.958;7.012;2023-09-18T04:52:03;19.50;99.90
6421;DHT22;3243;50.958;7.012;2023-09-18T04:54:31;19.40;99.90
6421;DHT22;3243;50.958;7.012;2023-09-18T04:56:58;19.30;99.90
6421;DHT22;3243;50.958;7.012;2023-09-18T04:59:25;19.40;99.90
6421;DHT22;3243;50.958;7.012;2023-09-18T05:04:19;19.40;99.90
6421;DHT22;3243;50.958;7.012;2023-09-18T05:06:46;19.40;99.90
6421;DHT22;3243;50.958;7.012;2023-09-18T05:09:13;19.40;99.90
6421;DHT22;3243;50.958;7.012;2023-09-18T05:11:41;19.40;99.90
6421;DHT22;3243;50.958;7.012;2023-09-18T05:16:36;19.40;99.90
6421;DHT22;3243;50.958;7.012;2023-09-18T05:19:03;19.30;99.90
6421;DHT22;3243;50.958;7.012;2023-09-18T05:21:30;19.30;99.90
6421;DHT22;3243;50.958;7.012;2023-09-18T05:23:57;19.30;99.90
6421;DHT22;3243;50.958;7.012;2023-09-18T05:26:24;19.40;99.90
6421;DHT22;3243;50.958;7.012;2023-09-18T05:31:20;19.40;99.90
6421;DHT22;3243;50.958;7.012;2023-09-18T05:33:47;19.40;99.90
6421;DHT22;3243;50.958;7.012;2023-09-18T05:36:14;19.40;99.90
6421;DHT22;3243;50.958;7.012;2023-09-18T05:38:41;19.50;99.90
6421;DHT22;3243;50.958;7.012;2023-09-18T05:41:10;19.40;99.90
6421;DHT22;3243;50.958;7.012;2023-09-18T05:43:36;19.50;99.90
6421;DHT22;3243;50.958;7.012;2023-09-18T05:46:03;19.50;99.90
6421;DHT22;3243;50.958;7.012;2023-09-18T05:48:30;19.50;99.90
6421;DHT22;3243;50.958;7.012;2023-09-18T05:50:58;19.60;99.90
6421;DHT22;3243;50.958;7.012;2023-09-18T05:53:25;19.60;99.90
6421;DHT22;3243;50.958;7.012;2023-09-18T05:55:51;19.70;99.90
6421;DHT22;3243;50.958;7.012;2023-09-18T05:58:18;19.70;99.90
6421;DHT22;3243;50.958;7.012;2023-09-18T06:00:48;19.70;99.90
6421;DHT22;3243;50.958;7.012;2023-09-18T06:03:16;19.70;99.90
6421;DHT22;3243;50.958;7.012;2023-09-18T06:05:45;19.80;99.90
6421;DHT22;3243;50.958;7.012;2023-09-18T06:08:13;19.80;99.90
6421;DHT22;3243;50.958;7.012;2023-09-18T06:10:42;19.80;1.00
6421;DHT22;3243;50.958;7.012;2023-09-18T06:13:09;19.80;1.00
6421;DHT22;3243;50.958;7.012;2023-09-18T06:15:36;19.90;99.90
6421;DHT22;3243;50.958;7.012;2023-09-18T06:18:03;19.90;1.00
6421;DHT22;3243;50.958;7.012;2023-09-18T06:20:30;19.90;1.00
6421;DHT22;3243;50.958;7.012;2023-09-18T06:22:57;20.10;99.90
6421;DHT22;3243;50.958;7.012;2023-09-18T06:25:24;20.20;99.90
6421;DHT22;3243;50.958;7.012;2023-09-18T06:27:51;20.20;99.90
6421;DHT22;3243;50.958;7.012;2023-09-18T06:30:17;20.30;99.90
6421;DHT22;3243;50.958;7.012;2023-09-18T06:32:44;20.30;99.90
6421;DHT22;3243;50.958;7.012;2023-09-18T06:35:11;20.40;99.90
6421;DHT22;3243;50.958;7.012;2023-09-18T06:37:38;20.50;19.30
6421;DHT22;3243;50.958;7.012;2023-09-18T06:40:05;20.50;35.60
6421;DHT22;3243;50.958;7.012;2023-09-18T06:42:32;20.50;1.00
6421;DHT22;3243;50.958;7.012;2023-09-18T06:44:59;20.60;1.00
6421;DHT22;3243;50.958;7.012;2023-09-18T06:47:28;20.70;99.90
6421;DHT22;3243;50.958;7.012;2023-09-18T06:49:55;20.70;99.90
6421;DHT22;3243;50.958;7.012;2023-09-18T06:52:21;20.70;99.90
6421;DHT22;3243;50.958;7.012;2023-09-18T06:54:48;20.80;99.90
6421;DHT22;3243;50.958;7.012;2023-09-18T06:57:15;20.90;99.90
6421;DHT22;3243;50.958;7.012;2023-09-18T06:59:42;21.00;99.90
6421;DHT22;3243;50.958;7.012;2023-09-18T07:02:10;21.00;99.90
6421;DHT22;3243;50.958;7.012;2023-09-18T07:04:37;21.20;1.00
6421;DHT22;3243;50.958;7.012;2023-09-18T07:07:13;21.20;1.00
6421;DHT22;3243;50.958;7.012;2023-09-18T07:09:41;21.20;1.00
6421;DHT22;3243;50.958;7.012;2023-09-18T07:12:28;21.20;1.00
6421;DHT22;3243;50.958;7.012;2023-09-18T07:14:55;21.30;1.00
6421;DHT22;3243;50.958;7.012;2023-09-18T07:17:22;21.40;1.00
6421;DHT22;3243;50.958;7.012;2023-09-18T07:19:48;21.50;1.00
6421;DHT22;3243;50.958;7.012;2023-09-18T07:22:15;21.50;1.00
6421;DHT22;3243;50.958;7.012;2023-09-18T07:24:42;21.70;1.00
6421;DHT22;3243;50.958;7.012;2023-09-18T07:27:11;21.80;99.90
6421;DHT22;3243;50.958;7.012;2023-09-18T07:29:38;21.90;99.90
6421;DHT22;3243;50.958;7.012;2023-09-18T07:32:05;18.50;99.90
6421;DHT22;3243;50.958;7.012;2023-09-18T07:34:33;22.00;99.90
6421;DHT22;3243;50.958;7.012;2023-09-18T07:37:01;22.10;99.90
6421;DHT22;3243;50.958;7.012;2023-09-18T07:39:28;22.00;99.90
6421;DHT22;3243;50.958;7.012;2023-09-18T07:41:56;22.00;99.90
6421;DHT22;3243;50.958;7.012;2023-09-18T07:44:23;22.00;99.90
6421;DHT22;3243;50.958;7.012;2023-09-18T07:46:50;22.00;99.90
6421;DHT22;3243;50.958;7.012;2023-09-18T07:49:17;21.80;99.90
6421;DHT22;3243;50.958;7.012;2023-09-18T07:51:44;21.80;99.90
6421;DHT22;3243;50.958;7.012;2023-09-18T07:54:14;21.80;99.90
6421;DHT22;3243;50.958;7.012;2023-09-18T07:56:42;21.80;99.90
6421;DHT22;3243;50.958;7.012;2023-09-18T07:59:09;21.90;99.90
6421;DHT22;3243;50.958;7.012;2023-09-18T08:01:37;21.90;99.90
6421;DHT22;3243;50.958;7.012;2023-09-18T08:04:04;21.90;99.90
6421;DHT22;3243;50.958;7.012;2023-09-18T08:06:32;21.90;99.90
6421;DHT22;3243;50.958;7.012;2023-09-18T08:09:00;21.90;99.90
6421;DHT22;3243;50.958;7.012;2023-09-18T08:11:27;21.80;99.90
6421;DHT22;3243;50.958;7.012;2023-09-18T08:13:53;21.80;99.90
6421;DHT22;3243;50.958;7.012;2023-09-18T08:16:20;21.70;99.90
6421;DHT22;3243;50.958;7.012;2023-09-18T08:18:47;21.80;99.90
6421;DHT22;3243;50.958;7.012;2023-09-18T08:21:14;21.80;99.90
6421;DHT22;3243;50.958;7.012;2023-09-18T08:23:41;21.80;99.90
6421;DHT22;3243;50.958;7.012;2023-09-18T08:26:09;21.90;99.90
6421;DHT22;3243;50.958;7.012;2023-09-18T08:28:35;22.00;99.90
6421;DHT22;3243;50.958;7.012;2023-09-18T08:31:05;22.10;99.90
6421;DHT22;3243;50.958;7.012;2023-09-18T08:33:32;22.10;99.90
6421;DHT22;3243;50.958;7.012;2023-09-18T08:35:58;22.20;99.90
6421;DHT22;3243;50.958;7.012;2023-09-18T08:38:25;22.20;99.90
6421;DHT22;3243;50.958;7.012;2023-09-18T08:40:54;22.30;99.90
6421;DHT22;3243;50.958;7.012;2023-09-18T08:43:21;22.40;99.90
6421;DHT22;3243;50.958;7.012;2023-09-18T08:45:53;22.40;99.90
6421;DHT22;3243;50.958;7.012;2023-09-18T08:48:21;22.40;99.90
6421;DHT22;3243;50.958;7.012;2023-09-18T08:50:48;22.40;99.90
6421;DHT22;3243;50.958;7.012;2023-09-18T08:53:16;22.40;99.90
6421;DHT22;3243;50.958;7.012;2023-09-18T08:55:43;22.50;99.90
6421;DHT22;3243;50.958;7.012;2023-09-18T08:58:09;22.60;99.90
6421;DHT22;3243;50.958;7.012;2023-09-18T09:00:37;22.50;99.90
6421;DHT22;3243;50.958;7.012;2023-09-18T09:03:04;22.60;98.70
6421;DHT22;3243;50.958;7.012;2023-09-18T09:05:32;22.80;60.80
6421;DHT22;3243;50.958;7.012;2023-09-18T09:07:59;22.80;75.70
6421;DHT22;3243;50.958;7.012;2023-09-18T09:10:27;22.90;41.20
6421;DHT22;3243;50.958;7.012;2023-09-18T09:12:58;22.90;55.20
6421;DHT22;3243;50.958;7.012;2023-09-18T09:15:28;22.90;45.50
6421;DHT22;3243;50.958;7.012;2023-09-18T09:18:06;22.90;26.50
6421;DHT22;3243;50.958;7.012;2023-09-18T09:20:35;22.90;41.00
6421;DHT22;3243;50.958;7.012;2023-09-18T09:23:03;22.90;41.70
6421;DHT22;3243;50.958;7.012;2023-09-18T09:25:32;22.90;22.30
6421;DHT22;3243;50.958;7.012;2023-09-18T09:28:06;22.90;28.70
6421;DHT22;3243;50.958;7.012;2023-09-18T09:30:35;22.90;15.90
6421;DHT22;3243;50.958;7.012;2023-09-18T09:33:04;23.00;19.00
6421;DHT22;3243;50.958;7.012;2023-09-18T09:35:33;23.10;18.00
6421;DHT22;3243;50.958;7.012;2023-09-18T09:38:10;23.10;16.40
6421;DHT22;3243;50.958;7.012;2023-09-18T09:40:39;23.10;13.40
6421;DHT22;3243;50.958;7.012;2023-09-18T09:43:09;23.30;1.00
6421;DHT22;3243;50.958;7.012;2023-09-18T09:45:36;23.30;1.00
6421;DHT22;3243;50.958;7.012;2023-09-18T09:48:04;23.40;1.00
6421;DHT22;3243;50.958;7.012;2023-09-18T09:50:35;23.40;1.00
6421;DHT22;3243;50.958;7.012;2023-09-18T09:53:11;23.50;1.00
6421;DHT22;3243;50.958;7.012;2023-09-18T09:58:06;23.60;1.00
6421;DHT22;3243;50.958;7.012;2023-09-18T10:00:47;23.60;1.00
6421;DHT22;3243;50.958;7.012;2023-09-18T10:03:19;23.60;1.00
6421;DHT22;3243;50.958;7.012;2023-09-18T10:05:51;23.70;1.00
6421;DHT22;3243;50.958;7.012;2023-09-18T10:08:25;23.80;1.00
6421;DHT22;3243;50.958;7.012;2023-09-18T10:10:55;23.90;1.00
6421;DHT22;3243;50.958;7.012;2023-09-18T10:13:33;24.00;1.00
6421;DHT22;3243;50.958;7.012;2023-09-18T10:16:04;24.10;1.00
6421;DHT22;3243;50.958;7.012;2023-09-18T10:18:45;24.10;1.00
6421;DHT22;3243;50.958;7.012;2023-09-18T10:21:35;24.10;1.00
6421;DHT22;3243;50.958;7.012;2023-09-18T10:26:35;24.10;1.00
6421;DHT22;3243;50.958;7.012;2023-09-18T10:29:05;24.00;1.00
6421;DHT22;3243;50.958;7.012;2023-09-18T10:31:36;23.80;1.00
6421;DHT22;3243;50.958;7.012;2023-09-18T10:34:05;23.80;1.00
6421;DHT22;3243;50.958;7.012;2023-09-18T10:36:33;23.80;1.00
6421;DHT22;3243;50.958;7.012;2023-09-18T10:39:01;23.70;1.00
6421;DHT22;3243;50.958;7.012;2023-09-18T10:41:29;23.60;1.00
6421;DHT22;3243;50.958;7.012;2023-09-18T10:43:56;23.70;1.00
6421;DHT22;3243;50.958;7.012;2023-09-18T10:46:27;23.70;1.00
6421;DHT22;3243;50.958;7.012;2023-09-18T10:48:55;23.70;1.00
6421;DHT22;3243;50.958;7.012;2023-09-18T10:51:23;23.80;1.00
6421;DHT22;3243;50.958;7.012;2023-09-18T10:53:50;23.80;1.00
6421;DHT22;3243;50.958;7.012;2023-09-18T10:56:22;23.80;1.00
6421;DHT22;3243;50.958;7.012;2023-09-18T10:58:59;23.90;1.00
6421;DHT22;3243;50.958;7.012;2023-09-18T11:01:28;24.10;1.00
6421;DHT22;3243;50.958;7.012;2023-09-18T11:04:00;24.20;1.00
6421;DHT22;3243;50.958;7.012;2023-09-18T11:06:28;24.30;1.00
6421;DHT22;3243;50.958;7.012;2023-09-18T11:09:04;24.40;1.00
6421;DHT22;3243;50.958;7.012;2023-09-18T11:11:32;24.60;1.00
6421;DHT22;3243;50.958;7.012;2023-09-18T11:14:00;24.50;1.00
6421;DHT22;3243;50.958;7.012;2023-09-18T11:21:29;24.20;1.00
6421;DHT22;3243;50.958;7.012;2023-09-18T11:26:29;24.10;1.00
6421;DHT22;3243;50.958;7.012;2023-09-18T11:29:04;24.10;1.00
6421;DHT22;3243;50.958;7.012;2023-09-18T11:31:52;24.10;1.00
6421;DHT22;3243;50.958;7.012;2023-09-18T11:37:22;24.20;1.00
6421;DHT22;3243;50.958;7.012;2023-09-18T11:39:49;24.20;1.00
6421;DHT22;3243;50.958;7.012;2023-09-18T11:42:20;24.20;1.00
6421;DHT22;3243;50.958;7.012;2023-09-18T11:44:54;24.20;1.00
6421;DHT22;3243;50.958;7.012;2023-09-18T11:47:25;24.40;1.00
6421;DHT22;3243;50.958;7.012;2023-09-18T11:49:57;24.50;1.00
6421;DHT22;3243;50.958;7.012;2023-09-18T11:52:27;24.60;1.00
6421;DHT22;3243;50.958;7.012;2023-09-18T11:54:58;24.70;1.00
6421;DHT22;3243;50.958;7.012;2023-09-18T11:57:25;24.70;1.00
6421;DHT22;3243;50.958;7.012;2023-09-18T11:59:54;24.80;1.00
6421;DHT22;3243;50.958;7.012;2023-09-18T12:02:29;24.80;1.00
6421;DHT22;3243;50.958;7.012;2023-09-18T12:05:15;24.80;1.00
6421;DHT22;3243;50.958;7.012;2023-09-18T12:07:46;24.70;1.00
6421;DHT22;3243;50.958;7.012;2023-09-18T12:10:15;24.80;1.00
6421;DHT22;3243;50.958;7.012;2023-09-18T12:12:44;24.80;1.00
6421;DHT22;3243;50.958;7.012;2023-09-18T12:15:12;24.90;1.00
6421;DHT22;3243;50.958;7.012;2023-09-18T12:17:39;25.00;1.00
6421;DHT22;3243;50.958;7.012;2023-09-18T12:20:06;25.10;1.00
6421;DHT22;3243;50.958;7.012;2023-09-18T12:22:33;25.30;1.00
6421;DHT22;3243;50.958;7.012;2023-09-18T12:25:13;25.50;1.00
6421;DHT22;3243;50.958;7.012;2023-09-18T12:27:45;25.60;1.00
6421;DHT22;3243;50.958;7.012;2023-09-18T12:30:12;25.50;1.00
6421;DHT22;3243;50.958;7.012;2023-09-18T12:32:42;25.40;1.00
6421;DHT22;3243;50.958;7.012;2023-09-18T12:35:09;25.30;1.00
6421;DHT22;3243;50.958;7.012;2023-09-18T12:37:40;25.20;1.00
6421;DHT22;3243;50.958;7.012;2023-09-18T12:40:24;25.30;1.00
6421;DHT22;3243;50.958;7.012;2023-09-18T12:42:53;25.40;1.00
6421;DHT22;3243;50.958;7.012;2023-09-18T12:45:22;25.50;1.00
6421;DHT22;3243;50.958;7.012;2023-09-18T12:47:49;25.50;1.00
6421;DHT22;3243;50.958;7.012;2023-09-18T12:50:16;25.60;1.00
6421;DHT22;3243;50.958;7.012;2023-09-18T12:52:43;25.70;1.00
6421;DHT22;3243;50.958;7.012;2023-09-18T12:55:26;25.80;1.00
6421;DHT22;3243;50.958;7.012;2023-09-18T12:57:54;25.80;1.00
6421;DHT22;3243;50.958;7.012;2023-09-18T13:00:22;25.70;1.00
6421;DHT22;3243;50.958;7.012;2023-09-18T13:02:50;25.60;1.00
6421;DHT22;3243;50.958;7.012;2023-09-18T13:05:23;25.50;1.00
6421;DHT22;3243;50.958;7.012;2023-09-18T13:07:54;25.40;1.00
6421;DHT22;3243;50.958;7.012;2023-09-18T13:10:22;25.50;1.00
6421;DHT22;3243;50.958;7.012;2023-09-18T13:12:54;25.50;1.00
6421;DHT22;3243;50.958;7.012;2023-09-18T13:15:30;25.50;1.00
6421;DHT22;3243;50.958;7.012;2023-09-18T13:18:08;25.60;1.00
6421;DHT22;3243;50.958;7.012;2023-09-18T13:20:36;25.70;1.00
6421;DHT22;3243;50.958;7.012;2023-09-18T13:23:03;25.70;1.00
6421;DHT22;3243;50.958;7.012;2023-09-18T13:25:33;25.80;1.00
6421;DHT22;3243;50.958;7.012;2023-09-18T13:28:06;25.80;1.00
6421;DHT22;3243;50.958;7.012;2023-09-18T13:30:35;25.90;1.00
6421;DHT22;3243;50.958;7.012;2023-09-18T13:33:04;25.80;1.00
6421;DHT22;3243;50.958;7.012;2023-09-18T13:35:34;25.80;1.00
6421;DHT22;3243;50.958;7.012;2023-09-18T13:38:01;25.70;1.00
6421;DHT22;3243;50.958;7.012;2023-09-18T13:40:31;25.70;1.00
6421;DHT22;3243;50.958;7.012;2023-09-18T13:42:59;25.40;1.00
6421;DHT22;3243;50.958;7.012;2023-09-18T13:45:26;25.40;1.00
6421;DHT22;3243;50.958;7.012;2023-09-18T13:47:53;25.40;1.00
6421;DHT22;3243;50.958;7.012;2023-09-18T13:50:21;25.30;1.00
6421;DHT22;3243;50.958;7.012;2023-09-18T13:52:48;25.30;1.00
6421;DHT22;3243;50.958;7.012;2023-09-18T13:55:15;25.30;1.00
6421;DHT22;3243;50.958;7.012;2023-09-18T13:57:41;25.30;1.00
6421;DHT22;3243;50.958;7.012;2023-09-18T14:00:08;25.30;1.00
6421;DHT22;3243;50.958;7.012;2023-09-18T14:02:41;25.40;1.00
6421;DHT22;3243;50.958;7.012;2023-09-18T14:05:09;25.20;1.00
6421;DHT22;3243;50.958;7.012;2023-09-18T14:07:44;25.20;1.00
6421;DHT22;3243;50.958;7.012;2023-09-18T14:10:11;25.20;1.00
6421;DHT22;3243;50.958;7.012;2023-09-18T14:12:38;25.20;1.00
6421;DHT22;3243;50.958;7.012;2023-09-18T14:15:07;25.30;1.00
6421;DHT22;3243;50.958;7.012;2023-09-18T14:17:35;25.40;1.00
6421;DHT22;3243;50.958;7.012;2023-09-18T14:20:03;25.30;1.00
6421;DHT22;3243;50.958;7.012;2023-09-18T14:22:36;25.40;1.00
6421;DHT22;3243;50.958;7.012;2023-09-18T14:25:04;25.40;1.00
6421;DHT22;3243;50.958;7.012;2023-09-18T14:27:33;25.20;1.00
6421;DHT22;3243;50.958;7.012;2023-09-18T14:30:03;25.10;1.00
6421;DHT22;3243;50.958;7.012;2023-09-18T14:32:34;25.10;1.00
6421;DHT22;3243;50.958;7.012;2023-09-18T14:35:03;25.00;1.00
6421;DHT22;3243;50.958;7.012;2023-09-18T14:37:35;24.90;1.00
6421;DHT22;3243;50.958;7.012;2023-09-18T14:40:03;24.90;1.00
6421;DHT22;3243;50.958;7.012;2023-09-18T14:42:30;24.80;1.00
6421;DHT22;3243;50.958;7.012;2023-09-18T14:44:57;24.80;1.00
6421;DHT22;3243;50.958;7.012;2023-09-18T14:47:24;24.70;1.00
6421;DHT22;3243;50.958;7.012;2023-09-18T14:49:51;24.70;1.00
6421;DHT22;3243;50.958;7.012;2023-09-18T14:52:18;24.70;1.00
6421;DHT22;3243;50.958;7.012;2023-09-18T14:54:45;24.70;1.00
6421;DHT22;3243;50.958;7.012;2023-09-18T14:57:13;24.60;1.00
6421;DHT22;3243;50.958;7.012;2023-09-18T14:59:39;24.60;1.00
6421;DHT22;3243;50.958;7.012;2023-09-18T15:02:09;24.60;1.00
6421;DHT22;3243;50.958;7.012;2023-09-18T15:04:36;24.70;1.00
6421;DHT22;3243;50.958;7.012;2023-09-18T15:07:03;24.60;1.00
6421;DHT22;3243;50.958;7.012;2023-09-18T15:09:30;24.70;1.00
6421;DHT22;3243;50.958;7.012;2023-09-18T15:11:57;24.60;1.00
6421;DHT22;3243;50.958;7.012;2023-09-18T15:14:24;24.70;1.00
6421;DHT22;3243;50.958;7.012;2023-09-18T15:16:51;24.70;1.00
6421;DHT22;3243;50.958;7.012;2023-09-18T15:19:18;24.80;1.00
6421;DHT22;3243;50.958;7.012;2023-09-18T15:21:46;24.80;1.00
6421;DHT22;3243;50.958;7.012;2023-09-18T15:24:13;24.80;1.00
6421;DHT22;3243;50.958;7.012;2023-09-18T15:26:40;24.70;1.00
6421;DHT22;3243;50.958;7.012;2023-09-18T15:29:08;24.70;1.00
6421;DHT22;3243;50.958;7.012;2023-09-18T15:31:35;24.70;1.00
6421;DHT22;3243;50.958;7.012;2023-09-18T15:34:02;24.60;1.00
6421;DHT22;3243;50.958;7.012;2023-09-18T15:36:30;24.60;1.00
6421;DHT22;3243;50.958;7.012;2023-09-18T15:38:58;24.60;1.00
6421;DHT22;3243;50.958;7.012;2023-09-18T15:41:26;24.50;1.00
6421;DHT22;3243;50.958;7.012;2023-09-18T15:43:55;24.60;1.00
6421;DHT22;3243;50.958;7.012;2023-09-18T15:46:22;24.60;1.00
6421;DHT22;3243;50.958;7.012;2023-09-18T15:48:49;24.50;1.00
6421;DHT22;3243;50.958;7.012;2023-09-18T15:51:17;24.50;1.00
6421;DHT22;3243;50.958;7.012;2023-09-18T15:53:45;24.40;1.00
6421;DHT22;3243;50.958;7.012;2023-09-18T15:56:12;24.40;1.00
6421;DHT22;3243;50.958;7.012;2023-09-18T15:58:40;24.30;1.00
6421;DHT22;3243;50.958;7.012;2023-09-18T16:01:06;24.20;1.00
6421;DHT22;3243;50.958;7.012;2023-09-18T16:03:38;24.10;1.00
6421;DHT22;3243;50.958;7.012;2023-09-18T16:06:07;24.00;1.00
6421;DHT22;3243;50.958;7.012;2023-09-18T16:08:34;24.00;1.00
6421;DHT22;3243;50.958;7.012;2023-09-18T16:11:01;24.00;1.00
6421;DHT22;3243;50.958;7.012;2023-09-18T16:13:28;24.10;1.00
6421;DHT22;3243;50.958;7.012;2023-09-18T16:15:54;24.00;1.00
6421;DHT22;3243;50.958;7.012;2023-09-18T16:18:22;24.00;1.00
6421;DHT22;3243;50.958;7.012;2023-09-18T16:20:49;24.10;1.00
6421;DHT22;3243;50.958;7.012;2023-09-18T16:23:16;24.10;1.00
6421;DHT22;3243;50.958;7.012;2023-09-18T16:25:43;24.20;1.00
6421;DHT22;3243;50.958;7.012;2023-09-18T16:28:10;24.20;1.00
6421;DHT22;3243;50.958;7.012;2023-09-18T16:30:36;24.30;1.00
6421;DHT22;3243;50.958;7.012;2023-09-18T16:33:03;24.20;1.00
6421;DHT22;3243;50.958;7.012;2023-09-18T16:35:30;24.20;1.00
6421;DHT22;3243;50.958;7.012;2023-09-18T16:37:58;24.20;1.00
6421;DHT22;3243;50.958;7.012;2023-09-18T16:40:25;24.10;1.00
6421;DHT22;3243;50.958;7.012;2023-09-18T16:42:52;24.00;1.00
6421;DHT22;3243;50.958;7.012;2023-09-18T16:45:18;23.90;1.00
6421;DHT22;3243;50.958;7.012;2023-09-18T16:47:46;23.80;1.00